sensor_id;sensor_type;location;lat;lon;timestamp;temperature;humidity
36416;DHT22;22447;44.530;18.620;2024-01-15T00:02:00;-1.30;99.90
36416;DHT22;22447;44.530;18.620;2024-01-15T00:04:25;-1.40;99.90
36416;DHT22;22447;44.530;18.620;2024-01-15T00:06:51;-1.50;99.90
36416;DHT22;22447;44.530;18.620;2024-01-15T00:09:17;-1.40;99.90
36416;DHT22;22447;44.530;18.620;2024-01-15T00:11:43;-1.50;99.90
36416;DHT22;22447;44.530;18.620;2024-01-15T00:14:09;-1.40;99.90
36416;DHT22;22447;44.530;18.620;2024-01-15T00:16:35;-1.30;99.90
36416;DHT22;22447;44.530;18.620;2024-01-15T00:19:00;-1.30;99.90
36416;DHT22;22447;44.530;18.620;2024-01-15T00:21:26;-1.30;99.90
36416;DHT22;22447;44.530;18.620;2024-01-15T00:23:53;-1.40;99.90
36416;DHT22;22447;44.530;18.620;2024-01-15T00:26:19;-1.40;99.90
36416;DHT22;22447;44.530;18.620;2024-01-15T00:28:45;-1.20;99.90
36416;DHT22;22447;44.530;18.620;2024-01-15T00:31:11;-1.20;99.90
36416;DHT22;22447;44.530;18.620;2024-01-15T00:33:36;-1.30;99.90
36416;DHT22;22447;44.530;18.620;2024-01-15T00:36:02;-1.20;99.90
36416;DHT22;22447;44.530;18.620;2024-01-15T00:38:28;-1.20;99.90
36416;DHT22;22447;44.530;18.620;2024-01-15T00:40:54;-1.30;99.90
36416;DHT22;22447;44.530;18.620;2024-01-15T00:43:20;-1.40;99.90
36416;DHT22;22447;44.530;18.620;2024-01-15T00:45:46;-1.40;99.90
36416;DHT22;22447;44.530;18.620;2024-01-15T00:48:12;-1.60;99.90
36416;DHT22;22447;44.530;18.620;2024-01-15T00:50:38;-1.80;99.90
36416;DHT22;22447;44.530;18.620;2024-01-15T00:53:04;-1.90;99.90
36416;DHT22;22447;44.530;18.620;2024-01-15T00:55:30;-2.00;99.90
36416;DHT22;22447;44.530;18.620;2024-01-15T00:57:56;-2.10;99.90
36416;DHT22;22447;44.530;18.620;2024-01-15T01:00:21;-2.10;99.90
36416;DHT22;22447;44.530;18.620;2024-01-15T01:02:47;-1.90;99.90
36416;DHT22;22447;44.530;18.620;2024-01-15T01:05:13;-1.90;99.90
36416;DHT22;22447;44.530;18.620;2024-01-15T01:07:39;-1.80;99.90
36416;DHT22;22447;44.530;18.620;2024-01-15T01:10:05;-1.80;99.90
36416;DHT22;22447;44.530;18.620;2024-01-15T01:12:31;-1.80;99.90
36416;DHT22;22447;44.530;18.620;2024-01-15T01:14:57;-1.70;99.90
36416;DHT22;22447;44.530;18.620;2024-01-15T01:17:22;-1.70;99.90
36416;DHT22;22447;44.530;18.620;2024-01-15T01:19:49;-1.60;99.90
36416;DHT22;22447;44.530;18.620;2024-01-15T01:22:15;-1.50;99.90
36416;DHT22;22447;44.530;18.620;2024-01-15T01:24:41;-1.60;99.90
36416;DHT22;22447;44.530;18.620;2024-01-15T01:27:07;-1.50;99.90
36416;DHT22;22447;44.530;18.620;2024-01-15T01:29:33;-1.40;99.90
36416;DHT22;22447;44.530;18.620;2024-01-15T01:31:59;-1.40;99.90
36416;DHT22;22447;44.530;18.620;2024-01-15T01:34:24;-1.30;99.90
36416;DHT22;22447;44.530;18.620;2024-01-15T01:36:50;-1.30;99.90
36416;DHT22;22447;44.530;18.620;2024-01-15T01:39:16;-1.30;99.90
36416;DHT22;22447;44.530;18.620;2024-01-15T01:41:42;-1.30;99.90
36416;DHT22;22447;44.530;18.620;2024-01-15T01:44:07;-1.30;99.90
36416;DHT22;22447;44.530;18.620;2024-01-15T01:46:34;-1.30;99.90
36416;DHT22;22447;44.530;18.620;2024-01-15T01:49:00;-1.30;99.90
36416;DHT22;22447;44.530;18.620;2024-01-15T01:51:31;-1.20;99.90
36416;DHT22;22447;44.530;18.620;2024-01-15T01:53:57;-1.30;99.90
36416;DHT22;22447;44.530;18.620;2024-01-15T01:56:23;-1.30;99.90
36416;DHT22;22447;44.530;18.620;2024-01-15T01:58:49;-1.30;99.90
36416;DHT22;22447;44.530;18.620;2024-01-15T02:01:15;-1.30;99.90
36416;DHT22;22447;44.530;18.620;2024-01-15T02:03:41;-1.20;99.90
36416;DHT22;22447;44.530;18.620;2024-01-15T02:06:08;-1.20;99.90
36416;DHT22;22447;44.530;18.620;2024-01-15T02:08:34;-1.10;99.90
36416;DHT22;22447;44.530;18.620;2024-01-15T02:11:00;-1.10;99.90
36416;DHT22;22447;44.530;18.620;2024-01-15T02:13:26;-1.20;99.90
36416;DHT22;22447;44.530;18.620;2024-01-15T02:15:52;-1.10;99.90
36416;DHT22;22447;44.530;18.620;2024-01-15T02:18:18;-1.00;99.90
36416;DHT22;22447;44.530;18.620;2024-01-15T02:20:44;-1.00;99.90
36416;DHT22;22447;44.530;18.620;2024-01-15T02:25:46;-0.90;99.90
36416;DHT22;22447;44.530;18.620;2024-01-15T02:28:14;-0.90;99.90
36416;DHT22;22447;44.530;18.620;2024-01-15T02:30:41;-1.00;99.90
36416;DHT22;22447;44.530;18.620;2024-01-15T02:33:08;-1.20;99.90
36416;DHT22;22447;44.530;18.620;2024-01-15T02:35:35;-1.10;99.90
36416;DHT22;22447;44.530;18.620;2024-01-15T02:38:04;-1.00;99.90
36416;DHT22;22447;44.530;18.620;2024-01-15T02:40:31;-1.00;99.90
36416;DHT22;22447;44.530;18.620;2024-01-15T02:42:57;-1.10;99.90
36416;DHT22;22447;44.530;18.620;2024-01-15T02:45:23;-1.10;99.90
36416;DHT22;22447;44.530;18.620;2024-01-15T02:47:49;-1.00;99.90
36416;DHT22;22447;44.530;18.620;2024-01-15T02:50:15;-1.00;99.90
36416;DHT22;22447;44.530;18.620;2024-01-15T02:52:44;-0.80;99.90
36416;DHT22;22447;44.530;18.620;2024-01-15T02:55:10;-0.90;99.90
36416;DHT22;22447;44.530;18.620;2024-01-15T02:57:36;-0.90;99.90
36416;DHT22;22447;44.530;18.620;2024-01-15T03:00:02;-0.80;99.90
36416;DHT22;22447;44.530;18.620;2024-01-15T03:02:29;-0.90;99.90
36416;DHT22;22447;44.530;18.620;2024-01-15T03:04:57;-0.90;99.90
36416;DHT22;22447;44.530;18.620;2024-01-15T03:07:23;-0.80;99.90
36416;DHT22;22447;44.530;18.620;2024-01-15T03:09:49;-0.80;99.90
36416;DHT22;22447;44.530;18.620;2024-01-15T03:12:15;-0.80;99.90
36416;DHT22;22447;44.530;18.620;2024-01-15T03:14:42;-0.90;99.90
36416;DHT22;22447;44.530;18.620;2024-01-15T03:17:07;-0.90;99.90
36416;DHT22;22447;44.530;18.620;2024-01-15T03:19:35;-1.00;99.90
36416;DHT22;22447;44.530;18.620;2024-01-15T03:22:01;-1.00;99.90
36416;DHT22;22447;44.530;18.620;2024-01-15T03:24:29;-1.10;99.90
36416;DHT22;22447;44.530;18.620;2024-01-15T03:26:55;-1.30;99.90
36416;DHT22;22447;44.530;18.620;2024-01-15T03:29:21;-1.60;99.90
36416;DHT22;22447;44.530;18.620;2024-01-15T03:31:47;-1.60;99.90
36416;DHT22;22447;44.530;18.620;2024-01-15T03:34:13;-1.70;99.90
36416;DHT22;22447;44.530;18.620;2024-01-15T03:36:39;-1.80;99.90
36416;DHT22;22447;44.530;18.620;2024-01-15T03:39:04;-1.90;99.90
36416;DHT22;22447;44.530;18.620;2024-01-15T03:41:30;-2.10;99.90
36416;DHT22;22447;44.530;18.620;2024-01-15T03:43:56;-2.00;99.90
36416;DHT22;22447;44.530;18.620;2024-01-15T03:46:22;-2.20;99.90
36416;DHT22;22447;44.530;18.620;2024-01-15T03:48:48;-2.00;99.90
36416;DHT22;22447;44.530;18.620;2024-01-15T03:51:17;-1.90;99.90
36416;DHT22;22447;44.530;18.620;2024-01-15T03:53:42;-1.90;99.90
36416;DHT22;22447;44.530;18.620;2024-01-15T03:56:08;-2.00;99.90
36416;DHT22;22447;44.530;18.620;2024-01-15T03:58:34;-2.10;99.90
36416;DHT22;22447;44.530;18.620;2024-01-15T04:01:00;-2.00;99.90
36416;DHT22;22447;44.530;18.620;2024-01-15T04:03:25;-2.10;99.90
36416;DHT22;22447;44.530;18.620;2024-01-15T04:05:51;-2.20;99.90
36416;DHT22;22447;44.530;18.620;2024-01-15T04:08:17;-2.20;99.90
36416;DHT22;22447;44.530;18.620;2024-01-15T04:10:43;-2.20;99.90
36416;DHT22;22447;44.530;18.620;2024-01-15T04:13:09;-2.30;99.90
36416;DHT22;22447;44.530;18.620;2024-01-15T04:15:35;-2.10;99.90
36416;DHT22;22447;44.530;18.620;2024-01-15T04:18:02;-1.80;99.90
36416;DHT22;22447;44.530;18.620;2024-01-15T04:20:28;-1.90;99.90
36416;DHT22;22447;44.530;18.620;2024-01-15T04:22:54;-1.90;99.90
36416;DHT22;22447;44.530;18.620;2024-01-15T04:25:20;-1.70;99.90
36416;DHT22;22447;44.530;18.620;2024-01-15T04:27:45;-1.50;99.90
36416;DHT22;22447;44.530;18.620;2024-01-15T04:30:11;-1.50;99.90
36416;DHT22;22447;44.530;18.620;2024-01-15T04:32:37;-1.30;99.90
36416;DHT22;22447;44.530;18.620;2024-01-15T04:35:03;-1.20;99.90
36416;DHT22;22447;44.530;18.620;2024-01-15T04:37:29;-1.10;99.90
36416;DHT22;22447;44.530;18.620;2024-01-15T04:39:55;-0.90;99.90
36416;DHT22;22447;44.530;18.620;2024-01-15T04:42:23;-0.80;99.90
36416;DHT22;22447;44.530;18.620;2024-01-15T04:44:49;-0.70;99.90
36416;DHT22;22447;44.530;18.620;2024-01-15T04:47:15;-0.60;99.90
36416;DHT22;22447;44.530;18.620;2024-01-15T04:49:41;-0.60;99.90
36416;DHT22;22447;44.530;18.620;2024-01-15T04:52:07;-0.60;99.90
36416;DHT22;22447;44.530;18.620;2024-01-15T04:54:36;-0.50;99.90
36416;DHT22;22447;44.530;18.620;2024-01-15T04:57:02;-0.50;99.90
36416;DHT22;22447;44.530;18.620;2024-01-15T04:59:28;-0.40;99.90
36416;DHT22;22447;44.530;18.620;2024-01-15T05:01:55;-0.40;99.90
36416;DHT22;22447;44.530;18.620;2024-01-15T05:04:21;-0.40;99.90
36416;DHT22;22447;44.530;18.620;2024-01-15T05:06:46;-0.40;99.90
36416;DHT22;22447;44.530;18.620;2024-01-15T05:09:12;-0.40;99.90
36416;DHT22;22447;44.530;18.620;2024-01-15T05:11:39;-0.30;99.90
36416;DHT22;22447;44.530;18.620;2024-01-15T05:14:05;-0.40;99.90
36416;DHT22;22447;44.530;18.620;2024-01-15T05:16:31;-0.40;99.90
36416;DHT22;22447;44.530;18.620;2024-01-15T05:18:56;-0.40;99.90
36416;DHT22;22447;44.530;18.620;2024-01-15T05:21:22;-0.40;99.90
36416;DHT22;22447;44.530;18.620;2024-01-15T05:23:48;-0.40;99.90
36416;DHT22;22447;44.530;18.620;2024-01-15T05:26:14;-0.40;99.90
36416;DHT22;22447;44.530;18.620;2024-01-15T05:28:43;-0.40;99.90
36416;DHT22;22447;44.530;18.620;2024-01-15T05:31:09;-0.50;99.90
36416;DHT22;22447;44.530;18.620;2024-01-15T05:33:35;-0.50;99.90
36416;DHT22;22447;44.530;18.620;2024-01-15T05:36:01;-0.50;99.90
36416;DHT22;22447;44.530;18.620;2024-01-15T05:38:27;-0.50;99.90
36416;DHT22;22447;44.530;18.620;2024-01-15T05:40:53;-0.50;99.90
36416;DHT22;22447;44.530;18.620;2024-01-15T05:43:19;-0.50;99.90
36416;DHT22;22447;44.530;18.620;2024-01-15T05:45:45;-0.40;99.90
36416;DHT22;22447;44.530;18.620;2024-01-15T05:48:11;-0.40;99.90
36416;DHT22;22447;44.530;18.620;2024-01-15T05:50:38;-0.50;99.90
36416;DHT22;22447;44.530;18.620;2024-01-15T05:53:04;-0.60;99.90
36416;DHT22;22447;44.530;18.620;2024-01-15T05:55:30;-0.40;99.90
36416;DHT22;22447;44.530;18.620;2024-01-15T05:57:56;-0.40;99.90
36416;DHT22;22447;44.530;18.620;2024-01-15T06:00:22;-0.40;99.90
36416;DHT22;22447;44.530;18.620;2024-01-15T06:02:48;-0.20;99.90
36416;DHT22;22447;44.530;18.620;2024-01-15T06:05:13;-0.10;99.90
36416;DHT22;22447;44.530;18.620;2024-01-15T06:07:39;0.00;99.90
36416;DHT22;22447;44.530;18.620;2024-01-15T06:10:05;0.10;99.90
36416;DHT22;22447;44.530;18.620;2024-01-15T06:12:31;0.30;99.90
36416;DHT22;22447;44.530;18.620;2024-01-15T06:14:59;0.30;99.90
36416;DHT22;22447;44.530;18.620;2024-01-15T06:17:25;0.40;99.90
36416;DHT22;22447;44.530;18.620;2024-01-15T06:19:51;0.50;99.90
36416;DHT22;22447;44.530;18.620;2024-01-15T06:22:17;0.50;99.90
36416;DHT22;22447;44.530;18.620;2024-01-15T06:24:43;0.50;99.90
36416;DHT22;22447;44.530;18.620;2024-01-15T06:27:09;0.60;99.90
36416;DHT22;22447;44.530;18.620;2024-01-15T06:29:37;0.70;99.90
36416;DHT22;22447;44.530;18.620;2024-01-15T06:32:04;0.70;99.90
36416;DHT22;22447;44.530;18.620;2024-01-15T06:34:30;0.80;99.90
36416;DHT22;22447;44.530;18.620;2024-01-15T06:36:56;0.70;99.90
36416;DHT22;22447;44.530;18.620;2024-01-15T06:39:21;0.80;99.90
36416;DHT22;22447;44.530;18.620;2024-01-15T06:41:47;0.90;99.90
36416;DHT22;22447;44.530;18.620;2024-01-15T06:44:13;1.00;99.90
36416;DHT22;22447;44.530;18.620;2024-01-15T06:46:46;1.00;99.90
36416;DHT22;22447;44.530;18.620;2024-01-15T06:49:12;1.00;99.90
36416;DHT22;22447;44.530;18.620;2024-01-15T06:51:38;1.10;99.90
36416;DHT22;22447;44.530;18.620;2024-01-15T06:54:04;1.10;99.90
36416;DHT22;22447;44.530;18.620;2024-01-15T06:56:30;1.10;99.90
36416;DHT22;22447;44.530;18.620;2024-01-15T06:58:56;1.20;99.90
36416;DHT22;22447;44.530;18.620;2024-01-15T07:01:22;1.20;99.90
36416;DHT22;22447;44.530;18.620;2024-01-15T07:03:48;1.30;99.90
36416;DHT22;22447;44.530;18.620;2024-01-15T07:06:14;1.40;99.90
36416;DHT22;22447;44.530;18.620;2024-01-15T07:08:40;1.50;99.90
36416;DHT22;22447;44.530;18.620;2024-01-15T07:11:06;1.50;99.90
36416;DHT22;22447;44.530;18.620;2024-01-15T07:13:32;1.50;99.90
36416;DHT22;22447;44.530;18.620;2024-01-15T07:15:58;1.60;99.90
36416;DHT22;22447;44.530;18.620;2024-01-15T07:18:24;1.70;99.90
36416;DHT22;22447;44.530;18.620;2024-01-15T07:20:51;1.70;99.90
36416;DHT22;22447;44.530;18.620;2024-01-15T07:23:16;1.70;99.90
36416;DHT22;22447;44.530;18.620;2024-01-15T07:25:43;1.80;99.90
36416;DHT22;22447;44.530;18.620;2024-01-15T07:28:09;1.80;99.90
36416;DHT22;22447;44.530;18.620;2024-01-15T07:30:35;1.80;99.90
36416;DHT22;22447;44.530;18.620;2024-01-15T07:33:01;1.80;99.90
36416;DHT22;22447;44.530;18.620;2024-01-15T07:35:27;1.80;99.90
36416;DHT22;22447;44.530;18.620;2024-01-15T07:37:52;1.80;99.90
36416;DHT22;22447;44.530;18.620;2024-01-15T07:40:18;1.60;99.90
36416;DHT22;22447;44.530;18.620;2024-01-15T07:42:44;1.50;99.90
36416;DHT22;22447;44.530;18.620;2024-01-15T07:45:11;1.60;99.90
36416;DHT22;22447;44.530;18.620;2024-01-15T07:47:37;1.60;99.90
36416;DHT22;22447;44.530;18.620;2024-01-15T07:50:03;1.70;99.90
36416;DHT22;22447;44.530;18.620;2024-01-15T07:52:30;1.80;99.90
36416;DHT22;22447;44.530;18.620;2024-01-15T07:54:56;2.00;99.90
36416;DHT22;22447;44.530;18.620;2024-01-15T07:57:22;2.10;99.90
36416;DHT22;22447;44.530;18.620;2024-01-15T07:59:48;2.20;99.90
36416;DHT22;22447;44.530;18.620;2024-01-15T08:02:15;2.20;99.90
36416;DHT22;22447;44.530;18.620;2024-01-15T08:04:40;2.40;99.90
36416;DHT22;22447;44.530;18.620;2024-01-15T08:07:06;2.50;99.90
36416;DHT22;22447;44.530;18.620;2024-01-15T08:09:35;2.50;99.90
36416;DHT22;22447;44.530;18.620;2024-01-15T08:12:01;2.40;99.90
36416;DHT22;22447;44.530;18.620;2024-01-15T08:14:27;2.40;99.90
36416;DHT22;22447;44.530;18.620;2024-01-15T08:16:53;2.50;99.90
36416;DHT22;22447;44.530;18.620;2024-01-15T08:19:18;2.20;99.90
36416;DHT22;22447;44.530;18.620;2024-01-15T08:21:45;2.30;99.90
36416;DHT22;22447;44.530;18.620;2024-01-15T08:24:11;2.20;99.90
36416;DHT22;22447;44.530;18.620;2024-01-15T08:26:37;2.10;99.90
36416;DHT22;22447;44.530;18.620;2024-01-15T08:29:03;2.10;99.90
36416;DHT22;22447;44.530;18.620;2024-01-15T08:31:29;2.00;99.90
36416;DHT22;22447;44.530;18.620;2024-01-15T08:33:55;1.90;99.90
36416;DHT22;22447;44.530;18.620;2024-01-15T08:36:21;1.90;99.90
36416;DHT22;22447;44.530;18.620;2024-01-15T08:38:47;1.90;99.90
36416;DHT22;22447;44.530;18.620;2024-01-15T08:41:13;1.90;99.90
36416;DHT22;22447;44.530;18.620;2024-01-15T08:43:39;2.00;99.90
36416;DHT22;22447;44.530;18.620;2024-01-15T08:46:05;2.10;99.90
36416;DHT22;22447;44.530;18.620;2024-01-15T08:48:31;2.20;99.90
36416;DHT22;22447;44.530;18.620;2024-01-15T08:50:57;2.30;99.90
36416;DHT22;22447;44.530;18.620;2024-01-15T08:53:23;2.30;99.90
36416;DHT22;22447;44.530;18.620;2024-01-15T08:55:49;2.40;99.90
36416;DHT22;22447;44.530;18.620;2024-01-15T08:58:15;2.50;99.90
36416;DHT22;22447;44.530;18.620;2024-01-15T09:00:41;2.60;99.90
36416;DHT22;22447;44.530;18.620;2024-01-15T09:03:07;2.70;99.90
36416;DHT22;22447;44.530;18.620;2024-01-15T09:05:34;2.70;99.90
36416;DHT22;22447;44.530;18.620;2024-01-15T09:08:00;2.70;99.90
36416;DHT22;22447;44.530;18.620;2024-01-15T09:10:25;2.70;99.90
36416;DHT22;22447;44.530;18.620;2024-01-15T09:12:51;2.70;99.90
36416;DHT22;22447;44.530;18.620;2024-01-15T09:15:17;2.80;99.90
36416;DHT22;22447;44.530;18.620;2024-01-15T09:17:43;2.90;99.90
36416;DHT22;22447;44.530;18.620;2024-01-15T09:20:10;3.00;99.90
36416;DHT22;22447;44.530;18.620;2024-01-15T09:22:38;3.10;99.90
36416;DHT22;22447;44.530;18.620;2024-01-15T09:25:07;3.30;99.90
36416;DHT22;22447;44.530;18.620;2024-01-15T09:27:35;3.50;99.90
36416;DHT22;22447;44.530;18.620;2024-01-15T09:30:02;3.60;99.90
36416;DHT22;22447;44.530;18.620;2024-01-15T09:32:28;3.70;99.90
36416;DHT22;22447;44.530;18.620;2024-01-15T09:34:54;3.70;99.90
36416;DHT22;22447;44.530;18.620;2024-01-15T09:37:21;3.90;99.90
36416;DHT22;22447;44.530;18.620;2024-01-15T09:39:46;4.10;99.90
36416;DHT22;22447;44.530;18.620;2024-01-15T09:42:14;4.10;99.90
36416;DHT22;22447;44.530;18.620;2024-01-15T09:44:40;4.20;99.90
36416;DHT22;22447;44.530;18.620;2024-01-15T09:47:07;4.20;99.90
36416;DHT22;22447;44.530;18.620;2024-01-15T09:49:33;4.30;99.90
36416;DHT22;22447;44.530;18.620;2024-01-15T09:51:59;4.40;99.90
36416;DHT22;22447;44.530;18.620;2024-01-15T09:54:26;4.40;99.90
36416;DHT22;22447;44.530;18.620;2024-01-15T09:56:52;4.30;99.90
36416;DHT22;22447;44.530;18.620;2024-01-15T09:59:19;4.30;99.90
36416;DHT22;22447;44.530;18.620;2024-01-15T10:01:46;4.30;99.90
36416;DHT22;22447;44.530;18.620;2024-01-15T10:04:14;4.40;99.90
36416;DHT22;22447;44.530;18.620;2024-01-15T10:06:44;4.50;99.90
36416;DHT22;22447;44.530;18.620;2024-01-15T10:09:12;4.60;99.90
36416;DHT22;22447;44.530;18.620;2024-01-15T10:11:42;4.60;99.90
36416;DHT22;22447;44.530;18.620;2024-01-15T10:14:12;4.80;99.90
36416;DHT22;22447;44.530;18.620;2024-01-15T10:16:41;4.80;99.90
36416;DHT22;22447;44.530;18.620;2024-01-15T10:19:08;4.80;99.90
36416;DHT22;22447;44.530;18.620;2024-01-15T10:21:34;4.70;99.90
36416;DHT22;22447;44.530;18.620;2024-01-15T10:24:01;4.60;99.90
36416;DHT22;22447;44.530;18.620;2024-01-15T10:26:28;4.40;99.90
36416;DHT22;22447;44.530;18.620;2024-01-15T10:28:54;4.30;99.90
36416;DHT22;22447;44.530;18.620;2024-01-15T10:31:20;4.20;99.90
36416;DHT22;22447;44.530;18.620;2024-01-15T10:33:50;4.00;99.90
36416;DHT22;22447;44.530;18.620;2024-01-15T10:36:16;4.10;99.90
36416;DHT22;22447;44.530;18.620;2024-01-15T10:38:46;4.20;99.90
36416;DHT22;22447;44.530;18.620;2024-01-15T10:41:12;4.20;99.90
36416;DHT22;22447;44.530;18.620;2024-01-15T10:43:38;4.30;99.90
36416;DHT22;22447;44.530;18.620;2024-01-15T10:46:07;4.40;99.90
36416;DHT22;22447;44.530;18.620;2024-01-15T10:48:34;4.40;99.90
36416;DHT22;22447;44.530;18.620;2024-01-15T10:51:01;4.20;99.90
36416;DHT22;22447;44.530;18.620;2024-01-15T10:53:38;4.40;99.90
36416;DHT22;22447;44.530;18.620;2024-01-15T10:56:06;4.30;99.90
36416;DHT22;22447;44.530;18.620;2024-01-15T10:58:34;4.30;99.90
36416;DHT22;22447;44.530;18.620;2024-01-15T11:01:01;4.10;99.90
36416;DHT22;22447;44.530;18.620;2024-01-15T11:03:28;3.90;99.90
36416;DHT22;22447;44.530;18.620;2024-01-15T11:05:54;4.00;99.90
36416;DHT22;22447;44.530;18.620;2024-01-15T11:08:20;3.90;99.90
36416;DHT22;22447;44.530;18.620;2024-01-15T11:10:48;3.80;99.90
36416;DHT22;22447;44.530;18.620;2024-01-15T11:13:43;3.80;99.90
36416;DHT22;22447;44.530;18.620;2024-01-15T11:16:13;3.70;99.90
36416;DHT22;22447;44.530;18.620;2024-01-15T11:18:43;3.80;99.90
36416;DHT22;22447;44.530;18.620;2024-01-15T11:21:27;3.80;99.90
36416;DHT22;22447;44.530;18.620;2024-01-15T11:24:01;3.90;99.90
36416;DHT22;22447;44.530;18.620;2024-01-15T11:26:43;4.00;99.90
36416;DHT22;22447;44.530;18.620;2024-01-15T11:32:09;3.90;99.90
36416;DHT22;22447;44.530;18.620;2024-01-15T11:34:57;3.90;99.90
36416;DHT22;22447;44.530;18.620;2024-01-15T11:37:25;3.90;99.90
36416;DHT22;22447;44.530;18.620;2024-01-15T11:39:56;3.60;99.90
36416;DHT22;22447;44.530;18.620;2024-01-15T11:42:26;3.70;99.90
36416;DHT22;22447;44.530;18.620;2024-01-15T11:44:53;3.70;99.90
36416;DHT22;22447;44.530;18.620;2024-01-15T11:48:15;3.70;99.90
36416;DHT22;22447;44.530;18.620;2024-01-15T11:50:22;3.70;99.90
36416;DHT22;22447;44.530;18.620;2024-01-15T11:55:45;3.70;99.90
36416;DHT22;22447;44.530;18.620;2024-01-15T11:58:12;3.70;99.90
36416;DHT22;22447;44.530;18.620;2024-01-15T12:00:43;3.90;99.90
36416;DHT22;22447;44.530;18.620;2024-01-15T12:03:10;4.10;99.90
36416;DHT22;22447;44.530;18.620;2024-01-15T12:05:37;4.20;99.90
36416;DHT22;22447;44.530;18.620;2024-01-15T12:08:04;4.30;99.90
36416;DHT22;22447;44.530;18.620;2024-01-15T12:10:37;4.30;99.90
36416;DHT22;22447;44.530;18.620;2024-01-15T12:13:10;4.40;99.90
36416;DHT22;22447;44.530;18.620;2024-01-15T12:15:40;4.30;99.90
36416;DHT22;22447;44.530;18.620;2024-01-15T12:18:10;4.20;99.90
36416;DHT22;22447;44.530;18.620;2024-01-15T12:20:37;4.20;99.90
36416;DHT22;22447;44.530;18.620;2024-01-15T12:23:03;4.30;99.90
36416;DHT22;22447;44.530;18.620;2024-01-15T12:25:30;4.30;99.90
36416;DHT22;22447;44.530;18.620;2024-01-15T12:27:56;4.40;99.90
36416;DHT22;22447;44.530;18.620;2024-01-15T12:30:22;4.50;99.90
36416;DHT22;22447;44.530;18.620;2024-01-15T12:32:48;4.50;99.90
36416;DHT22;22447;44.530;18.620;2024-01-15T12:35:14;4.60;99.90
36416;DHT22;22447;44.530;18.620;2024-01-15T12:37:41;4.80;99.90
36416;DHT22;22447;44.530;18.620;2024-01-15T12:40:08;5.00;99.90
36416;DHT22;22447;44.530;18.620;2024-01-15T12:42:36;5.20;99.90
36416;DHT22;22447;44.530;18.620;2024-01-15T12:45:03;5.40;99.90
36416;DHT22;22447;44.530;18.620;2024-01-15T12:47:31;5.60;99.90
36416;DHT22;22447;44.530;18.620;2024-01-15T12:49:57;5.70;99.90
36416;DHT22;22447;44.530;18.620;2024-01-15T12:52:27;5.80;99.90
36416;DHT22;22447;44.530;18.620;2024-01-15T12:54:52;5.80;99.90
36416;DHT22;22447;44.530;18.620;2024-01-15T12:57:19;5.60;99.90
36416;DHT22;22447;44.530;18.620;2024-01-15T12:59:45;5.60;99.90
36416;DHT22;22447;44.530;18.620;2024-01-15T13:02:12;5.60;99.90
36416;DHT22;22447;44.530;18.620;2024-01-15T13:04:38;5.60;99.90
36416;DHT22;22447;44.530;18.620;2024-01-15T13:07:08;5.50;99.90
36416;DHT22;22447;44.530;18.620;2024-01-15T13:09:34;5.50;99.90
36416;DHT22;22447;44.530;18.620;2024-01-15T13:12:01;5.30;99.90
36416;DHT22;22447;44.530;18.620;2024-01-15T13:14:28;5.00;99.90
36416;DHT22;22447;44.530;18.620;2024-01-15T13:16:54;5.10;99.90
36416;DHT22;22447;44.530;18.620;2024-01-15T13:19:20;5.30;99.90
36416;DHT22;22447;44.530;18.620;2024-01-15T13:21:49;5.30;99.90
36416;DHT22;22447;44.530;18.620;2024-01-15T13:24:17;5.30;99.90
36416;DHT22;22447;44.530;18.620;2024-01-15T13:26:43;5.20;99.90
36416;DHT22;22447;44.530;18.620;2024-01-15T13:29:09;5.10;99.90
36416;DHT22;22447;44.530;18.620;2024-01-15T13:31:35;5.10;99.90
36416;DHT22;22447;44.530;18.620;2024-01-15T13:34:02;5.10;99.90
36416;DHT22;22447;44.530;18.620;2024-01-15T13:36:28;5.20;99.90
36416;DHT22;22447;44.530;18.620;2024-01-15T13:38:54;5.10;99.90
36416;DHT22;22447;44.530;18.620;2024-01-15T13:41:21;5.10;99.90
36416;DHT22;22447;44.530;18.620;2024-01-15T13:43:54;5.10;99.90
36416;DHT22;22447;44.530;18.620;2024-01-15T13:46:25;5.20;99.90
36416;DHT22;22447;44.530;18.620;2024-01-15T13:48:55;5.20;99.90
36416;DHT22;22447;44.530;18.620;2024-01-15T13:51:24;5.10;99.90
36416;DHT22;22447;44.530;18.620;2024-01-15T13:53:51;4.90;99.90
36416;DHT22;22447;44.530;18.620;2024-01-15T13:56:16;5.00;99.90
36416;DHT22;22447;44.530;18.620;2024-01-15T13:58:43;5.00;99.90
36416;DHT22;22447;44.530;18.620;2024-01-15T14:01:09;5.00;99.90
36416;DHT22;22447;44.530;18.620;2024-01-15T14:03:36;4.80;99.90
36416;DHT22;22447;44.530;18.620;2024-01-15T14:06:02;4.90;99.90
36416;DHT22;22447;44.530;18.620;2024-01-15T14:08:29;4.80;99.90
36416;DHT22;22447;44.530;18.620;2024-01-15T14:10:55;4.90;99.90
36416;DHT22;22447;44.530;18.620;2024-01-15T14:13:22;4.80;99.90
36416;DHT22;22447;44.530;18.620;2024-01-15T14:15:48;4.70;99.90
36416;DHT22;22447;44.530;18.620;2024-01-15T14:18:16;4.70;99.90
36416;DHT22;22447;44.530;18.620;2024-01-15T14:20:43;4.70;99.90
36416;DHT22;22447;44.530;18.620;2024-01-15T14:23:09;4.60;99.90
36416;DHT22;22447;44.530;18.620;2024-01-15T14:25:35;4.50;99.90
36416;DHT22;22447;44.530;18.620;2024-01-15T14:28:01;4.50;99.90
36416;DHT22;22447;44.530;18.620;2024-01-15T14:30:27;4.40;99.90
36416;DHT22;22447;44.530;18.620;2024-01-15T14:32:53;4.30;99.90
36416;DHT22;22447;44.530;18.620;2024-01-15T14:35:18;4.20;99.90
36416;DHT22;22447;44.530;18.620;2024-01-15T14:37:44;3.90;99.90
36416;DHT22;22447;44.530;18.620;2024-01-15T14:40:11;3.90;99.90
36416;DHT22;22447;44.530;18.620;2024-01-15T14:42:37;3.90;99.90
36416;DHT22;22447;44.530;18.620;2024-01-15T14:45:04;3.90;99.90
36416;DHT22;22447;44.530;18.620;2024-01-15T14:47:40;3.80;99.90
36416;DHT22;22447;44.530;18.620;2024-01-15T14:50:07;3.80;99.90
36416;DHT22;22447;44.530;18.620;2024-01-15T14:52:33;3.90;99.90
36416;DHT22;22447;44.530;18.620;2024-01-15T14:55:00;3.90;99.90
36416;DHT22;22447;44.530;18.620;2024-01-15T14:57:26;3.90;99.90
36416;DHT22;22447;44.530;18.620;2024-01-15T14:59:52;4.00;99.90
36416;DHT22;22447;44.530;18.620;2024-01-15T15:02:19;4.00;99.90
36416;DHT22;22447;44.530;18.620;2024-01-15T15:04:45;3.90;99.90
36416;DHT22;22447;44.530;18.620;2024-01-15T15:07:11;3.80;99.90
36416;DHT22;22447;44.530;18.620;2024-01-15T15:09:37;3.90;99.90
36416;DHT22;22447;44.530;18.620;2024-01-15T15:12:05;4.00;99.90
36416;DHT22;22447;44.530;18.620;2024-01-15T15:14:32;3.80;99.90
36416;DHT22;22447;44.530;18.620;2024-01-15T15:17:06;3.80;99.90
36416;DHT22;22447;44.530;18.620;2024-01-15T15:19:32;3.90;99.90
36416;DHT22;22447;44.530;18.620;2024-01-15T15:21:59;3.80;99.90
36416;DHT22;22447;44.530;18.620;2024-01-15T15:24:25;3.80;99.90
36416;DHT22;22447;44.530;18.620;2024-01-15T15:26:51;3.70;99.90
36416;DHT22;22447;44.530;18.620;2024-01-15T15:29:17;3.70;99.90
36416;DHT22;22447;44.530;18.620;2024-01-15T15:31:43;3.60;99.90